This demonstration page uses our WeatherBlox Daily Observations layout. Learn more.

Left ArrowRight Arrow

39.92423, -83.80882

Hourly Observations for March 24, 2017

Temp ( °F °C ) Dew Point ( °F °C ) Humidity (%) Winds ( mph kmh ) Pressure ( in mb ) Visibility ( mi km ) Precip ( " mm )
12:56 am 00:56 Cloudy 48 8.9 32 0 54 54 SSE 7 11 30.22 1023 10 16.0934 0 0
1:56 am 01:56 Cloudy with Light Rain 49 9.4 34 1.1 56 56 SSE 12 19 30.17 1022 10 16.0934 0 0.0254
2:56 am 02:56 Clear 48 8.9 32 0 54 54 S 12 19 30.16 1021 10 16.0934 0 0.0254
3:56 am 03:56 Clear 50 10 35 1.7 57 57 S 8 13 30.14 1021 10 16.0934 0 0
4:56 am 04:56 Clear 50 10 37 2.8 61 61 S 5 7 30.15 1021 10 16.0934 0 0
5:56 am 05:56 Clear 47 8.3 38 3.3 71 71 SSE 6 9 30.16 1021 10 16.0934 0 0
6:56 am 06:56 Clear 53 11.7 41 5 64 64 SSW 9 15 30.16 1022 10 16.0934 0 0
7:56 am 07:56 Sunny 54 12.2 42 5.6 64 64 SSW 15 24 30.17 1022 10 16.0934 0 0
8:56 am 08:56 Partly Cloudy 55 12.8 43 6.1 64 64 SSW 16 26 30.2 1023 10 16.0934 0 0
9:56 am 09:56 Mostly Sunny 56 13.3 44 6.7 65 65 SSW 17 28 30.2 1023 8 12.87472 0 0
10:56 am 10:56 Mostly Sunny 58 14.4 46 7.8 65 65 SSW 17 28 30.2 1023 10 16.0934 0 0
11:56 am 11:56 Sunny 60 15.6 47 8.3 62 62 SSW 18 30 30.19 1022 10 16.0934 0 0
12:56 pm 12:56 Sunny 64 17.8 50 10 60 60 SW 20 31 30.16 1021 10 16.0934 0 0
1:56 pm 13:56 Sunny 68 20 52 11.1 57 57 SW 20 31 30.15 1021 10 16.0934 0 0
2:56 pm 14:56 Sunny 72 22.2 54 12.2 53 53 WSW 26 43 30.11 1020 10 16.0934 0 0
3:56 pm 15:56 Sunny 73 22.8 55 12.8 53 53 SW 18 30 30.1 1019 10 16.0934 0 0
4:56 pm 16:56 Mostly Sunny 72 22.2 54 12.2 53 53 SW 20 31 30.09 1019 10 16.0934 0 0
5:56 pm 17:56 Partly Cloudy 71 21.7 54 12.2 55 55 SSW 12 19 30.08 1019 10 16.0934 0 0
6:56 pm 18:56 Mostly Sunny 71 21.7 53 11.7 53 53 SW 16 26 30.08 1019 10 16.0934 0 0
7:56 pm 19:56 Clear 68 20 53 11.7 59 59 SW 12 19 30.09 1019 10 16.0934 0 0
8:56 pm 20:56 Clear 65 18.3 53 11.7 66 66 S 5 7 30.1 1019 10 16.0934 0 0
9:56 pm 21:56 Clear 64 17.8 52 11.1 65 65 SW 8 13 30.12 1020 10 16.0934 0 0
10:56 pm 22:56 Clear 64 17.8 52 11.1 65 65 SW 8 13 30.13 1020 10 16.0934 0 0
11:56 pm 23:56 Mostly Cloudy 64 17.8 52 11.1 65 65 SW 12 19 30.13 1020 10 16.0934 0 0

Powered by AerisWeather